Rechercher aéroport 
image banner adimage banner ad
image banner ad

SSBN - Belém Novo Airport

Situé à Porto Alegre, Brazil

ICAO - SSBN, IATA -

Données fournies par Airmate  

Information générale

Coordonnées: S30°11'16" W51°10'58"
Élévation : 19 feet MSL.
Variation magnétique : -17° East
Voir autres Aéroports à Rio Grande do Sul

Données opérationnelles

Accessible au public
Heure actuelle UTC:
Heure actuelle locale:
Météo à : SBPA - Salgado Filho ( 22 km )
METAR: SBPA 301600Z 04003KT 350V100 8000 VCSH FEW040TCU BKN090 23/23 Q1009 RETS
TAF: TAF SBPA 300900Z 3012/0112 03005KT 6000 TSRA SCT030 FEW040CB TX24/3018Z TN21/0108Z BECMG 3015/3017 09005KT CAVOK RMK PED
Voir NOTAMs / SUP AIP / TFR affectant cet aéroport [VIEW]
Fréquences de communication: [VIEW]

Pistes:

Identifiant RWYQFULongueur (ft)Largeur (ft)SurfaceLDA (ft)
08328198UNK
09361975UNK
27361975UNK

Coordonnées de l'aéroport

Adresse: Porto Alegre Brazil

Autres services d'aviation

Clubs d'aviation (sans but lucratif)

Aeroclube Do Rio Grande Do Sul

Aeroclube Do Rio Grande Do Sul
ensino@args.com.br+55513245-6060

Vue satellite de SSBN